Terminal Aerodrome Forecast
Issued by NWS Wilmington, OH

Home | Current Version | Previous Version | Text Only | Print | Product List | Glossary On
Versions: 1 2 3 4 5 6 7 8 9 10 11 12 13 14
000
FTUS41 KILN 271723
TAFDAY
TAF
KDAY 271723Z 2718/2818 01007KT P6SM SCT035 BKN045
     FM272300 04005KT P6SM SCT050
     FM280000 07004KT P6SM SKC
     FM281000 09003KT 5SM BR SKC
     FM281300 14005KT P6SM SKC=

USA.gov is the U.S. government's official web portal to all federal, state and local government web resources and services.